sensor_id;sensor_type;location;lat;lon;timestamp;temperature;humidity
68385;DHT22;55336;43.062;25.626;2023-05-28T00:00:05;15.40;99.90
68385;DHT22;55336;43.062;25.626;2023-05-28T00:02:35;15.40;99.90
68385;DHT22;55336;43.062;25.626;2023-05-28T00:05:01;15.40;99.90
68385;DHT22;55336;43.062;25.626;2023-05-28T00:07:27;15.50;99.90
68385;DHT22;55336;43.062;25.626;2023-05-28T00:09:58;15.50;99.90
68385;DHT22;55336;43.062;25.626;2023-05-28T00:12:25;15.50;99.90
68385;DHT22;55336;43.062;25.626;2023-05-28T00:14:51;15.50;99.90
68385;DHT22;55336;43.062;25.626;2023-05-28T00:17:17;15.50;99.90
68385;DHT22;55336;43.062;25.626;2023-05-28T00:19:43;15.50;99.90
68385;DHT22;55336;43.062;25.626;2023-05-28T00:22:09;15.60;99.90
68385;DHT22;55336;43.062;25.626;2023-05-28T00:24:35;15.60;99.90
68385;DHT22;55336;43.062;25.626;2023-05-28T00:27:01;15.70;99.90
68385;DHT22;55336;43.062;25.626;2023-05-28T00:29:27;15.80;99.90
68385;DHT22;55336;43.062;25.626;2023-05-28T00:31:53;15.80;99.90
68385;DHT22;55336;43.062;25.626;2023-05-28T00:34:22;15.80;99.90
68385;DHT22;55336;43.062;25.626;2023-05-28T00:36:48;15.80;99.90
68385;DHT22;55336;43.062;25.626;2023-05-28T00:39:14;15.90;99.90
68385;DHT22;55336;43.062;25.626;2023-05-28T00:41:40;15.90;99.90
68385;DHT22;55336;43.062;25.626;2023-05-28T00:44:06;15.90;99.90
68385;DHT22;55336;43.062;25.626;2023-05-28T00:46:34;16.00;99.90
68385;DHT22;55336;43.062;25.626;2023-05-28T00:49:00;15.90;99.90
68385;DHT22;55336;43.062;25.626;2023-05-28T00:51:27;16.00;99.90
68385;DHT22;55336;43.062;25.626;2023-05-28T00:53:52;16.00;99.90
68385;DHT22;55336;43.062;25.626;2023-05-28T00:56:18;16.00;99.90
68385;DHT22;55336;43.062;25.626;2023-05-28T00:58:45;16.10;99.90
68385;DHT22;55336;43.062;25.626;2023-05-28T01:01:13;16.00;99.90
68385;DHT22;55336;43.062;25.626;2023-05-28T01:03:39;16.10;99.90
68385;DHT22;55336;43.062;25.626;2023-05-28T01:06:07;16.10;99.90
68385;DHT22;55336;43.062;25.626;2023-05-28T01:08:35;16.00;99.90
68385;DHT22;55336;43.062;25.626;2023-05-28T01:11:01;16.10;99.90
68385;DHT22;55336;43.062;25.626;2023-05-28T01:13:27;16.10;99.90
68385;DHT22;55336;43.062;25.626;2023-05-28T01:15:53;16.00;99.90
68385;DHT22;55336;43.062;25.626;2023-05-28T01:18:20;16.10;99.90
68385;DHT22;55336;43.062;25.626;2023-05-28T01:20:46;16.10;99.90
68385;DHT22;55336;43.062;25.626;2023-05-28T01:23:11;16.10;99.90
68385;DHT22;55336;43.062;25.626;2023-05-28T01:25:41;16.10;99.90
68385;DHT22;55336;43.062;25.626;2023-05-28T01:28:13;16.20;99.90
68385;DHT22;55336;43.062;25.626;2023-05-28T01:30:39;16.20;99.90
68385;DHT22;55336;43.062;25.626;2023-05-28T01:33:06;16.20;99.90
68385;DHT22;55336;43.062;25.626;2023-05-28T01:35:32;16.20;99.90
68385;DHT22;55336;43.062;25.626;2023-05-28T01:37:59;16.30;99.90
68385;DHT22;55336;43.062;25.626;2023-05-28T01:40:25;16.30;99.90
68385;DHT22;55336;43.062;25.626;2023-05-28T01:42:51;16.30;99.90
68385;DHT22;55336;43.062;25.626;2023-05-28T01:45:20;16.30;99.90
68385;DHT22;55336;43.062;25.626;2023-05-28T01:47:45;16.30;99.90
68385;DHT22;55336;43.062;25.626;2023-05-28T01:50:11;16.30;99.90
68385;DHT22;55336;43.062;25.626;2023-05-28T01:52:38;16.30;99.90
68385;DHT22;55336;43.062;25.626;2023-05-28T01:55:04;16.20;99.90
68385;DHT22;55336;43.062;25.626;2023-05-28T01:57:30;16.30;99.90
68385;DHT22;55336;43.062;25.626;2023-05-28T01:59:56;16.30;99.90
68385;DHT22;55336;43.062;25.626;2023-05-28T02:02:23;16.30;99.90
68385;DHT22;55336;43.062;25.626;2023-05-28T02:04:51;16.20;99.90
68385;DHT22;55336;43.062;25.626;2023-05-28T02:07:17;16.20;99.90
68385;DHT22;55336;43.062;25.626;2023-05-28T02:09:43;16.20;99.90
68385;DHT22;55336;43.062;25.626;2023-05-28T02:12:10;16.20;99.90
68385;DHT22;55336;43.062;25.626;2023-05-28T02:14:36;16.20;99.90
68385;DHT22;55336;43.062;25.626;2023-05-28T02:17:02;16.20;99.90
68385;DHT22;55336;43.062;25.626;2023-05-28T02:19:27;16.20;99.90
68385;DHT22;55336;43.062;25.626;2023-05-28T02:21:54;16.10;99.90
68385;DHT22;55336;43.062;25.626;2023-05-28T02:24:21;16.10;99.90
68385;DHT22;55336;43.062;25.626;2023-05-28T02:26:47;16.20;99.90
68385;DHT22;55336;43.062;25.626;2023-05-28T02:29:15;16.10;99.90
68385;DHT22;55336;43.062;25.626;2023-05-28T02:31:41;16.20;99.90
68385;DHT22;55336;43.062;25.626;2023-05-28T02:34:07;16.20;99.90
68385;DHT22;55336;43.062;25.626;2023-05-28T02:36:33;16.10;99.90
68385;DHT22;55336;43.062;25.626;2023-05-28T02:38:59;16.10;99.90
68385;DHT22;55336;43.062;25.626;2023-05-28T02:41:25;16.10;99.90
68385;DHT22;55336;43.062;25.626;2023-05-28T02:43:51;16.10;99.90
68385;DHT22;55336;43.062;25.626;2023-05-28T02:46:17;16.10;99.90
68385;DHT22;55336;43.062;25.626;2023-05-28T02:48:42;16.10;99.90
68385;DHT22;55336;43.062;25.626;2023-05-28T02:51:10;16.10;99.90
68385;DHT22;55336;43.062;25.626;2023-05-28T02:53:35;16.10;99.90
68385;DHT22;55336;43.062;25.626;2023-05-28T02:56:01;16.10;99.90
68385;DHT22;55336;43.062;25.626;2023-05-28T02:58:27;16.00;99.90
68385;DHT22;55336;43.062;25.626;2023-05-28T03:00:54;16.00;99.90
68385;DHT22;55336;43.062;25.626;2023-05-28T03:03:20;16.00;99.90
68385;DHT22;55336;43.062;25.626;2023-05-28T03:05:51;15.50;99.90
68385;DHT22;55336;43.062;25.626;2023-05-28T03:08:17;16.00;99.90
68385;DHT22;55336;43.062;25.626;2023-05-28T03:10:43;15.90;99.90
68385;DHT22;55336;43.062;25.626;2023-05-28T03:13:09;15.90;99.90
68385;DHT22;55336;43.062;25.626;2023-05-28T03:15:34;16.00;99.90
68385;DHT22;55336;43.062;25.626;2023-05-28T03:18:00;16.00;99.90
68385;DHT22;55336;43.062;25.626;2023-05-28T03:20:26;16.00;99.90
68385;DHT22;55336;43.062;25.626;2023-05-28T03:22:56;16.00;99.90
68385;DHT22;55336;43.062;25.626;2023-05-28T03:25:22;16.00;99.90
68385;DHT22;55336;43.062;25.626;2023-05-28T03:27:51;16.00;99.90
68385;DHT22;55336;43.062;25.626;2023-05-28T03:30:20;16.10;99.90
68385;DHT22;55336;43.062;25.626;2023-05-28T03:33:22;16.00;99.90
68385;DHT22;55336;43.062;25.626;2023-05-28T03:35:48;16.10;99.90
68385;DHT22;55336;43.062;25.626;2023-05-28T03:38:14;16.10;99.90
68385;DHT22;55336;43.062;25.626;2023-05-28T03:40:40;16.00;99.90
68385;DHT22;55336;43.062;25.626;2023-05-28T03:43:07;15.80;99.90
68385;DHT22;55336;43.062;25.626;2023-05-28T03:45:35;16.00;99.90
68385;DHT22;55336;43.062;25.626;2023-05-28T03:48:02;15.90;99.90
68385;DHT22;55336;43.062;25.626;2023-05-28T03:50:28;15.90;99.90
68385;DHT22;55336;43.062;25.626;2023-05-28T03:52:54;15.90;99.90
68385;DHT22;55336;43.062;25.626;2023-05-28T03:55:20;16.00;99.90
68385;DHT22;55336;43.062;25.626;2023-05-28T03:57:46;16.10;99.90
68385;DHT22;55336;43.062;25.626;2023-05-28T04:00:12;15.90;99.90
68385;DHT22;55336;43.062;25.626;2023-05-28T04:02:39;15.90;99.90
68385;DHT22;55336;43.062;25.626;2023-05-28T04:05:04;16.00;99.90
68385;DHT22;55336;43.062;25.626;2023-05-28T04:07:30;15.90;99.90
68385;DHT22;55336;43.062;25.626;2023-05-28T04:09:56;16.00;99.90
68385;DHT22;55336;43.062;25.626;2023-05-28T04:12:22;16.00;99.90
68385;DHT22;55336;43.062;25.626;2023-05-28T04:14:48;15.90;99.90
68385;DHT22;55336;43.062;25.626;2023-05-28T04:17:14;16.00;99.90
68385;DHT22;55336;43.062;25.626;2023-05-28T04:19:40;16.10;99.90
68385;DHT22;55336;43.062;25.626;2023-05-28T04:22:06;16.20;99.90
68385;DHT22;55336;43.062;25.626;2023-05-28T04:24:32;16.20;99.90
68385;DHT22;55336;43.062;25.626;2023-05-28T04:26:57;16.20;99.90
68385;DHT22;55336;43.062;25.626;2023-05-28T04:29:24;16.20;99.90
68385;DHT22;55336;43.062;25.626;2023-05-28T04:31:54;16.20;99.90
68385;DHT22;55336;43.062;25.626;2023-05-28T04:34:20;16.40;99.90
68385;DHT22;55336;43.062;25.626;2023-05-28T04:36:46;16.30;99.90
68385;DHT22;55336;43.062;25.626;2023-05-28T04:39:14;16.40;99.90
68385;DHT22;55336;43.062;25.626;2023-05-28T04:41:40;16.40;99.90
68385;DHT22;55336;43.062;25.626;2023-05-28T04:44:05;16.30;99.90
68385;DHT22;55336;43.062;25.626;2023-05-28T04:46:31;16.40;99.90
68385;DHT22;55336;43.062;25.626;2023-05-28T04:48:58;16.30;99.90
68385;DHT22;55336;43.062;25.626;2023-05-28T04:51:24;16.20;99.90
68385;DHT22;55336;43.062;25.626;2023-05-28T04:53:50;16.10;99.90
68385;DHT22;55336;43.062;25.626;2023-05-28T04:56:15;16.10;99.90
68385;DHT22;55336;43.062;25.626;2023-05-28T04:58:41;15.70;99.90
68385;DHT22;55336;43.062;25.626;2023-05-28T05:01:07;16.10;99.90
68385;DHT22;55336;43.062;25.626;2023-05-28T05:03:33;16.30;99.90
68385;DHT22;55336;43.062;25.626;2023-05-28T05:05:59;16.20;99.90
68385;DHT22;55336;43.062;25.626;2023-05-28T05:08:25;16.30;99.90
68385;DHT22;55336;43.062;25.626;2023-05-28T05:10:52;16.40;99.90
68385;DHT22;55336;43.062;25.626;2023-05-28T05:13:18;16.30;99.90
68385;DHT22;55336;43.062;25.626;2023-05-28T05:15:44;16.30;99.90
68385;DHT22;55336;43.062;25.626;2023-05-28T05:18:09;16.40;99.90
68385;DHT22;55336;43.062;25.626;2023-05-28T05:20:35;16.40;99.90
68385;DHT22;55336;43.062;25.626;2023-05-28T05:23:00;16.50;99.90
68385;DHT22;55336;43.062;25.626;2023-05-28T05:25:26;16.40;99.90
68385;DHT22;55336;43.062;25.626;2023-05-28T05:27:52;16.40;99.90
68385;DHT22;55336;43.062;25.626;2023-05-28T05:30:19;16.40;99.90
68385;DHT22;55336;43.062;25.626;2023-05-28T05:32:46;16.40;99.90
68385;DHT22;55336;43.062;25.626;2023-05-28T05:35:12;16.50;99.90
68385;DHT22;55336;43.062;25.626;2023-05-28T05:37:38;16.50;99.90
68385;DHT22;55336;43.062;25.626;2023-05-28T05:40:03;16.50;99.90
68385;DHT22;55336;43.062;25.626;2023-05-28T05:42:34;16.60;99.90
68385;DHT22;55336;43.062;25.626;2023-05-28T05:45:00;16.60;99.90
68385;DHT22;55336;43.062;25.626;2023-05-28T05:47:25;16.60;99.90
68385;DHT22;55336;43.062;25.626;2023-05-28T05:49:51;16.60;99.90
68385;DHT22;55336;43.062;25.626;2023-05-28T05:52:17;16.60;99.90
68385;DHT22;55336;43.062;25.626;2023-05-28T05:54:43;16.60;99.90
68385;DHT22;55336;43.062;25.626;2023-05-28T05:57:09;16.50;99.90
68385;DHT22;55336;43.062;25.626;2023-05-28T05:59:34;16.60;99.90
68385;DHT22;55336;43.062;25.626;2023-05-28T06:02:00;16.60;99.90
68385;DHT22;55336;43.062;25.626;2023-05-28T06:04:26;16.50;99.90
68385;DHT22;55336;43.062;25.626;2023-05-28T06:06:57;16.60;99.90
68385;DHT22;55336;43.062;25.626;2023-05-28T06:09:23;16.70;99.90
68385;DHT22;55336;43.062;25.626;2023-05-28T06:11:48;16.70;99.90
68385;DHT22;55336;43.062;25.626;2023-05-28T06:14:15;16.60;99.90
68385;DHT22;55336;43.062;25.626;2023-05-28T06:16:41;16.70;99.90
68385;DHT22;55336;43.062;25.626;2023-05-28T06:19:06;16.70;99.90
68385;DHT22;55336;43.062;25.626;2023-05-28T06:21:32;16.60;99.90
68385;DHT22;55336;43.062;25.626;2023-05-28T06:23:58;16.70;99.90
68385;DHT22;55336;43.062;25.626;2023-05-28T06:26:24;16.80;99.90
68385;DHT22;55336;43.062;25.626;2023-05-28T06:28:50;16.90;99.90
68385;DHT22;55336;43.062;25.626;2023-05-28T06:31:15;17.00;99.90
68385;DHT22;55336;43.062;25.626;2023-05-28T06:33:42;17.00;99.90
68385;DHT22;55336;43.062;25.626;2023-05-28T06:36:07;17.00;99.90
68385;DHT22;55336;43.062;25.626;2023-05-28T06:38:34;17.00;99.90
68385;DHT22;55336;43.062;25.626;2023-05-28T06:41:01;17.00;99.90
68385;DHT22;55336;43.062;25.626;2023-05-28T06:43:26;17.10;99.90
68385;DHT22;55336;43.062;25.626;2023-05-28T06:45:52;17.10;99.90
68385;DHT22;55336;43.062;25.626;2023-05-28T06:48:18;17.20;99.90
68385;DHT22;55336;43.062;25.626;2023-05-28T06:50:44;17.20;99.90
68385;DHT22;55336;43.062;25.626;2023-05-28T06:53:09;17.30;99.90
68385;DHT22;55336;43.062;25.626;2023-05-28T06:55:36;17.30;99.90
68385;DHT22;55336;43.062;25.626;2023-05-28T06:58:02;17.30;99.90
68385;DHT22;55336;43.062;25.626;2023-05-28T07:00:27;17.20;99.90
68385;DHT22;55336;43.062;25.626;2023-05-28T07:02:53;17.20;99.90
68385;DHT22;55336;43.062;25.626;2023-05-28T07:05:19;17.30;99.90
68385;DHT22;55336;43.062;25.626;2023-05-28T07:07:44;17.30;99.90
68385;DHT22;55336;43.062;25.626;2023-05-28T07:10:10;17.40;99.90
68385;DHT22;55336;43.062;25.626;2023-05-28T07:12:37;17.40;99.90
68385;DHT22;55336;43.062;25.626;2023-05-28T07:15:03;17.40;99.90
68385;DHT22;55336;43.062;25.626;2023-05-28T07:17:29;17.50;99.90
68385;DHT22;55336;43.062;25.626;2023-05-28T07:19:55;17.60;99.90
68385;DHT22;55336;43.062;25.626;2023-05-28T07:22:20;17.70;99.90
68385;DHT22;55336;43.062;25.626;2023-05-28T07:24:46;17.70;99.90
68385;DHT22;55336;43.062;25.626;2023-05-28T07:27:12;17.70;99.90
68385;DHT22;55336;43.062;25.626;2023-05-28T07:29:38;17.60;99.90
68385;DHT22;55336;43.062;25.626;2023-05-28T07:32:04;17.60;99.90
68385;DHT22;55336;43.062;25.626;2023-05-28T07:34:30;17.80;99.90
68385;DHT22;55336;43.062;25.626;2023-05-28T07:36:57;17.70;99.90
68385;DHT22;55336;43.062;25.626;2023-05-28T07:39:22;17.70;99.90
68385;DHT22;55336;43.062;25.626;2023-05-28T07:41:48;17.90;99.90
68385;DHT22;55336;43.062;25.626;2023-05-28T07:44:14;17.80;99.90
68385;DHT22;55336;43.062;25.626;2023-05-28T07:46:43;17.80;99.90
68385;DHT22;55336;43.062;25.626;2023-05-28T07:49:09;18.00;99.90
68385;DHT22;55336;43.062;25.626;2023-05-28T07:51:36;18.20;99.90
68385;DHT22;55336;43.062;25.626;2023-05-28T07:54:03;18.20;99.90
68385;DHT22;55336;43.062;25.626;2023-05-28T07:56:29;18.30;99.90
68385;DHT22;55336;43.062;25.626;2023-05-28T07:58:55;18.60;99.90
68385;DHT22;55336;43.062;25.626;2023-05-28T08:01:21;18.80;99.90
68385;DHT22;55336;43.062;25.626;2023-05-28T08:03:47;18.90;99.90
68385;DHT22;55336;43.062;25.626;2023-05-28T08:06:16;18.70;99.90
68385;DHT22;55336;43.062;25.626;2023-05-28T08:08:43;18.70;99.90
68385;DHT22;55336;43.062;25.626;2023-05-28T08:11:11;18.70;99.90
68385;DHT22;55336;43.062;25.626;2023-05-28T08:13:43;18.50;99.90
68385;DHT22;55336;43.062;25.626;2023-05-28T08:16:12;18.80;99.90
68385;DHT22;55336;43.062;25.626;2023-05-28T08:18:38;19.40;99.90
68385;DHT22;55336;43.062;25.626;2023-05-28T08:21:05;20.60;99.90
68385;DHT22;55336;43.062;25.626;2023-05-28T08:23:31;20.90;99.90
68385;DHT22;55336;43.062;25.626;2023-05-28T08:26:00;20.80;99.90
68385;DHT22;55336;43.062;25.626;2023-05-28T08:28:27;21.00;99.90
68385;DHT22;55336;43.062;25.626;2023-05-28T08:30:53;21.00;99.90
68385;DHT22;55336;43.062;25.626;2023-05-28T08:33:19;21.40;99.90
68385;DHT22;55336;43.062;25.626;2023-05-28T08:35:44;22.10;99.90
68385;DHT22;55336;43.062;25.626;2023-05-28T08:38:10;21.70;99.90
68385;DHT22;55336;43.062;25.626;2023-05-28T08:40:38;21.30;99.90
68385;DHT22;55336;43.062;25.626;2023-05-28T08:43:05;21.10;99.90
68385;DHT22;55336;43.062;25.626;2023-05-28T08:45:31;21.20;99.90
68385;DHT22;55336;43.062;25.626;2023-05-28T08:47:56;21.30;99.90
68385;DHT22;55336;43.062;25.626;2023-05-28T08:50:22;21.10;99.90
68385;DHT22;55336;43.062;25.626;2023-05-28T08:52:49;20.80;99.90
68385;DHT22;55336;43.062;25.626;2023-05-28T08:55:15;20.80;99.90
68385;DHT22;55336;43.062;25.626;2023-05-28T08:57:41;20.90;99.90
68385;DHT22;55336;43.062;25.626;2023-05-28T09:00:07;21.70;99.90
68385;DHT22;55336;43.062;25.626;2023-05-28T09:02:34;22.80;99.90
68385;DHT22;55336;43.062;25.626;2023-05-28T09:05:00;22.70;99.90
68385;DHT22;55336;43.062;25.626;2023-05-28T09:07:25;22.90;99.90
68385;DHT22;55336;43.062;25.626;2023-05-28T09:09:51;22.30;99.90
68385;DHT22;55336;43.062;25.626;2023-05-28T09:12:22;21.90;99.90
68385;DHT22;55336;43.062;25.626;2023-05-28T09:14:49;22.40;99.90
68385;DHT22;55336;43.062;25.626;2023-05-28T09:17:15;22.50;99.90
68385;DHT22;55336;43.062;25.626;2023-05-28T09:19:49;22.10;99.90
68385;DHT22;55336;43.062;25.626;2023-05-28T09:22:15;22.30;99.90
68385;DHT22;55336;43.062;25.626;2023-05-28T09:24:40;22.10;99.90
68385;DHT22;55336;43.062;25.626;2023-05-28T09:27:06;22.10;99.90
68385;DHT22;55336;43.062;25.626;2023-05-28T09:29:32;22.10;99.90
68385;DHT22;55336;43.062;25.626;2023-05-28T09:31:59;22.10;99.90
68385;DHT22;55336;43.062;25.626;2023-05-28T09:34:28;22.20;99.90
68385;DHT22;55336;43.062;25.626;2023-05-28T09:37:00;22.40;99.90
68385;DHT22;55336;43.062;25.626;2023-05-28T09:39:26;21.80;99.90
68385;DHT22;55336;43.062;25.626;2023-05-28T09:42:02;22.80;99.90
68385;DHT22;55336;43.062;25.626;2023-05-28T09:44:32;24.10;99.90
68385;DHT22;55336;43.062;25.626;2023-05-28T09:46:58;24.70;99.90
68385;DHT22;55336;43.062;25.626;2023-05-28T09:49:26;24.10;99.90
68385;DHT22;55336;43.062;25.626;2023-05-28T09:51:52;23.80;99.90
68385;DHT22;55336;43.062;25.626;2023-05-28T09:54:21;22.80;99.90
68385;DHT22;55336;43.062;25.626;2023-05-28T09:56:50;22.60;99.90
68385;DHT22;55336;43.062;25.626;2023-05-28T09:59:17;22.00;99.90
68385;DHT22;55336;43.062;25.626;2023-05-28T10:04:09;21.10;99.90
68385;DHT22;55336;43.062;25.626;2023-05-28T10:06:36;20.80;99.90
68385;DHT22;55336;43.062;25.626;2023-05-28T10:09:04;20.70;99.90
68385;DHT22;55336;43.062;25.626;2023-05-28T10:11:39;20.40;99.90
68385;DHT22;55336;43.062;25.626;2023-05-28T10:14:06;20.30;99.90
68385;DHT22;55336;43.062;25.626;2023-05-28T10:16:33;20.60;99.90
68385;DHT22;55336;43.062;25.626;2023-05-28T10:19:00;21.10;99.90
68385;DHT22;55336;43.062;25.626;2023-05-28T10:21:27;21.20;99.90
68385;DHT22;55336;43.062;25.626;2023-05-28T10:23:53;21.30;99.90
68385;DHT22;55336;43.062;25.626;2023-05-28T10:26:19;21.60;99.90
68385;DHT22;55336;43.062;25.626;2023-05-28T10:28:44;22.00;99.90
68385;DHT22;55336;43.062;25.626;2023-05-28T10:31:10;21.40;99.90
68385;DHT22;55336;43.062;25.626;2023-05-28T10:33:42;21.20;99.90
68385;DHT22;55336;43.062;25.626;2023-05-28T10:36:09;21.70;99.90
68385;DHT22;55336;43.062;25.626;2023-05-28T10:38:41;21.90;99.90
68385;DHT22;55336;43.062;25.626;2023-05-28T10:41:06;21.50;99.90
68385;DHT22;55336;43.062;25.626;2023-05-28T10:48:39;20.40;99.90
68385;DHT22;55336;43.062;25.626;2023-05-28T10:51:06;20.10;99.90
68385;DHT22;55336;43.062;25.626;2023-05-28T10:53:32;19.90;99.90
68385;DHT22;55336;43.062;25.626;2023-05-28T10:56:00;19.60;99.90
68385;DHT22;55336;43.062;25.626;2023-05-28T11:01:05;19.00;99.90
68385;DHT22;55336;43.062;25.626;2023-05-28T11:06:07;19.00;99.90
68385;DHT22;55336;43.062;25.626;2023-05-28T11:11:04;19.00;99.90
68385;DHT22;55336;43.062;25.626;2023-05-28T11:13:31;19.00;99.90
68385;DHT22;55336;43.062;25.626;2023-05-28T11:16:05;19.00;99.90
68385;DHT22;55336;43.062;25.626;2023-05-28T11:18:31;18.90;99.90
68385;DHT22;55336;43.062;25.626;2023-05-28T11:21:06;19.00;99.90
68385;DHT22;55336;43.062;25.626;2023-05-28T11:23:36;19.00;99.90
68385;DHT22;55336;43.062;25.626;2023-05-28T11:26:02;19.00;99.90
68385;DHT22;55336;43.062;25.626;2023-05-28T11:28:29;18.90;99.90
68385;DHT22;55336;43.062;25.626;2023-05-28T11:30:58;18.80;99.90
68385;DHT22;55336;43.062;25.626;2023-05-28T11:33:48;18.80;99.90
68385;DHT22;55336;43.062;25.626;2023-05-28T11:36:14;18.80;99.90
68385;DHT22;55336;43.062;25.626;2023-05-28T11:38:40;18.80;99.90
68385;DHT22;55336;43.062;25.626;2023-05-28T11:41:06;19.00;99.90
68385;DHT22;55336;43.062;25.626;2023-05-28T11:43:31;19.00;99.90
68385;DHT22;55336;43.062;25.626;2023-05-28T11:45:58;18.90;99.90
68385;DHT22;55336;43.062;25.626;2023-05-28T11:48:24;18.70;99.90
68385;DHT22;55336;43.062;25.626;2023-05-28T11:50:55;18.50;99.90
68385;DHT22;55336;43.062;25.626;2023-05-28T11:53:21;18.50;99.90
68385;DHT22;55336;43.062;25.626;2023-05-28T11:55:47;18.50;99.90
68385;DHT22;55336;43.062;25.626;2023-05-28T11:58:12;18.50;99.90
68385;DHT22;55336;43.062;25.626;2023-05-28T12:00:38;18.60;99.90
68385;DHT22;55336;43.062;25.626;2023-05-28T12:03:04;18.70;99.90
68385;DHT22;55336;43.062;25.626;2023-05-28T12:05:35;18.80;99.90
68385;DHT22;55336;43.062;25.626;2023-05-28T12:08:01;19.00;99.90
68385;DHT22;55336;43.062;25.626;2023-05-28T12:10:27;19.00;99.90
68385;DHT22;55336;43.062;25.626;2023-05-28T12:12:54;19.00;99.90
68385;DHT22;55336;43.062;25.626;2023-05-28T12:15:22;19.30;99.90
68385;DHT22;55336;43.062;25.626;2023-05-28T12:17:51;19.50;99.90
68385;DHT22;55336;43.062;25.626;2023-05-28T12:22:44;19.70;99.90
68385;DHT22;55336;43.062;25.626;2023-05-28T12:25:10;20.00;99.90
68385;DHT22;55336;43.062;25.626;2023-05-28T12:27:36;20.30;99.90
68385;DHT22;55336;43.062;25.626;2023-05-28T12:30:03;19.70;99.90
68385;DHT22;55336;43.062;25.626;2023-05-28T12:32:29;20.00;99.90
68385;DHT22;55336;43.062;25.626;2023-05-28T12:34:54;20.30;99.90
68385;DHT22;55336;43.062;25.626;2023-05-28T12:37:23;20.30;99.90
68385;DHT22;55336;43.062;25.626;2023-05-28T12:39:49;20.10;99.90
68385;DHT22;55336;43.062;25.626;2023-05-28T12:42:15;19.90;99.90
68385;DHT22;55336;43.062;25.626;2023-05-28T12:44:40;19.70;99.90
68385;DHT22;55336;43.062;25.626;2023-05-28T12:47:06;19.30;99.90
68385;DHT22;55336;43.062;25.626;2023-05-28T12:49:32;19.20;99.90
68385;DHT22;55336;43.062;25.626;2023-05-28T12:51:58;19.10;99.90
68385;DHT22;55336;43.062;25.626;2023-05-28T12:54:24;19.10;99.90
68385;DHT22;55336;43.062;25.626;2023-05-28T12:56:49;19.10;99.90
68385;DHT22;55336;43.062;25.626;2023-05-28T12:59:22;19.10;99.90
68385;DHT22;55336;43.062;25.626;2023-05-28T13:01:48;18.80;99.90
68385;DHT22;55336;43.062;25.626;2023-05-28T13:04:14;18.60;99.90
68385;DHT22;55336;43.062;25.626;2023-05-28T13:06:40;18.20;99.90
68385;DHT22;55336;43.062;25.626;2023-05-28T13:09:06;18.20;99.90
68385;DHT22;55336;43.062;25.626;2023-05-28T13:11:32;18.20;99.90
68385;DHT22;55336;43.062;25.626;2023-05-28T13:13:58;18.20;99.90
68385;DHT22;55336;43.062;25.626;2023-05-28T13:16:24;18.20;99.90
68385;DHT22;55336;43.062;25.626;2023-05-28T13:18:49;18.00;99.90
68385;DHT22;55336;43.062;25.626;2023-05-28T13:21:15;18.00;99.90
68385;DHT22;55336;43.062;25.626;2023-05-28T13:23:41;18.10;99.90
68385;DHT22;55336;43.062;25.626;2023-05-28T13:26:08;17.90;99.90
68385;DHT22;55336;43.062;25.626;2023-05-28T13:28:34;17.90;99.90
68385;DHT22;55336;43.062;25.626;2023-05-28T13:31:00;17.90;99.90
68385;DHT22;55336;43.062;25.626;2023-05-28T13:33:25;18.20;99.90
68385;DHT22;55336;43.062;25.626;2023-05-28T13:35:51;17.90;99.90
68385;DHT22;55336;43.062;25.626;2023-05-28T13:38:17;18.00;99.90
68385;DHT22;55336;43.062;25.626;2023-05-28T13:40:44;18.00;99.90
68385;DHT22;55336;43.062;25.626;2023-05-28T13:43:10;18.00;99.90
68385;DHT22;55336;43.062;25.626;2023-05-28T13:45:36;18.20;99.90
68385;DHT22;55336;43.062;25.626;2023-05-28T13:48:02;18.40;99.90
68385;DHT22;55336;43.062;25.626;2023-05-28T13:50:28;18.70;99.90
68385;DHT22;55336;43.062;25.626;2023-05-28T13:52:55;18.80;99.90
68385;DHT22;55336;43.062;25.626;2023-05-28T13:55:21;19.10;99.90
68385;DHT22;55336;43.062;25.626;2023-05-28T13:57:47;19.70;99.90
68385;DHT22;55336;43.062;25.626;2023-05-28T14:00:12;20.90;99.90
68385;DHT22;55336;43.062;25.626;2023-05-28T14:02:39;21.20;99.90
68385;DHT22;55336;43.062;25.626;2023-05-28T14:05:05;21.80;99.90
68385;DHT22;55336;43.062;25.626;2023-05-28T14:07:31;22.60;99.90
68385;DHT22;55336;43.062;25.626;2023-05-28T14:09:57;22.90;99.90
68385;DHT22;55336;43.062;25.626;2023-05-28T14:12:22;23.10;99.90
68385;DHT22;55336;43.062;25.626;2023-05-28T14:14:48;23.70;99.90
68385;DHT22;55336;43.062;25.626;2023-05-28T14:17:14;24.00;99.90
68385;DHT22;55336;43.062;25.626;2023-05-28T14:19:39;23.70;99.90
68385;DHT22;55336;43.062;25.626;2023-05-28T14:22:05;23.30;99.90
68385;DHT22;55336;43.062;25.626;2023-05-28T14:24:31;23.60;99.90
68385;DHT22;55336;43.062;25.626;2023-05-28T14:26:57;24.10;99.90
68385;DHT22;55336;43.062;25.626;2023-05-28T14:29:22;24.10;99.90
68385;DHT22;55336;43.062;25.626;2023-05-28T14:31:48;23.70;99.90
68385;DHT22;55336;43.062;25.626;2023-05-28T14:34:14;23.00;99.90
68385;DHT22;55336;43.062;25.626;2023-05-28T14:36:40;22.80;99.90
68385;DHT22;55336;43.062;25.626;2023-05-28T14:39:05;22.50;99.90
68385;DHT22;55336;43.062;25.626;2023-05-28T14:41:31;22.10;99.90
68385;DHT22;55336;43.062;25.626;2023-05-28T14:43:57;21.80;99.90
68385;DHT22;55336;43.062;25.626;2023-05-28T14:46:23;21.50;99.90
68385;DHT22;55336;43.062;25.626;2023-05-28T14:48:48;21.10;99.90
68385;DHT22;55336;43.062;25.626;2023-05-28T14:51:14;20.80;99.90
68385;DHT22;55336;43.062;25.626;2023-05-28T14:53:40;20.80;99.90
68385;DHT22;55336;43.062;25.626;2023-05-28T14:56:06;20.60;99.90
68385;DHT22;55336;43.062;25.626;2023-05-28T14:58:31;20.40;99.90
68385;DHT22;55336;43.062;25.626;2023-05-28T15:00:57;20.30;99.90
68385;DHT22;55336;43.062;25.626;2023-05-28T15:03:30;20.10;99.90
68385;DHT22;55336;43.062;25.626;2023-05-28T15:05:56;20.00;99.90
68385;DHT22;55336;43.062;25.626;2023-05-28T15:08:22;19.50;99.90
68385;DHT22;55336;43.062;25.626;2023-05-28T15:10:48;19.20;99.90
68385;DHT22;55336;43.062;25.626;2023-05-28T15:13:14;19.00;99.90
68385;DHT22;55336;43.062;25.626;2023-05-28T15:15:40;19.00;99.90
68385;DHT22;55336;43.062;25.626;2023-05-28T15:18:05;18.90;99.90
68385;DHT22;55336;43.062;25.626;2023-05-28T15:20:31;18.80;99.90
68385;DHT22;55336;43.062;25.626;2023-05-28T15:22:57;18.90;99.90
68385;DHT22;55336;43.062;25.626;2023-05-28T15:25:23;19.00;99.90
68385;DHT22;55336;43.062;25.626;2023-05-28T15:27:49;19.00;99.90